Time;durP1;ratioP1;P1;durP2;ratioP2;P2;SDS_P1;SDS_P2;PMS_P1;PMS_P2;Temp;Humidity;BMP_temperature;BMP_pressure;BME280_temperature;BME280_humidity;BME280_pressure;Samples;Min_cycle;Max_cycle;Signal;HPM_P1;HPM_P2
2021/09/22 00:00:17;;;;;;;7.87;6.18;;;;;;;;;;4443781;32;20398;-54
2021/09/22 00:02:42;;;;;;;9.52;6.93;;;;;;;;;;4447229;32;20228;-54
2021/09/22 00:05:09;;;;;;;8.57;6.28;;;;;;;;;;4446644;32;20279;-56
2021/09/22 00:07:35;;;;;;;17.83;7.05;;;;;;;;;;4436511;32;20308;-55
2021/09/22 00:10:00;;;;;;;6.28;5.35;;;;;;;;;;4447224;32;20457;-55
2021/09/22 00:12:26;;;;;;;8.95;6.43;;;;;;;;;;4443433;32;20634;-55
2021/09/22 00:14:51;;;;;;;6.15;5.50;;;;;;;;;;4435839;32;20307;-55
2021/09/22 00:17:17;;;;;;;8.63;6.68;;;;;;;;;;4442006;32;20264;-55
2021/09/22 00:19:43;;;;;;;7.68;5.93;;;;;;;;;;4437030;32;20318;-57
2021/09/22 00:22:08;;;;;;;11.85;7.82;;;;;;;;;;4444127;32;20223;-55
2021/09/22 00:24:34;;;;;;;11.45;7.75;;;;;;;;;;4437221;32;20299;-57
2021/09/22 00:26:59;;;;;;;10.18;7.20;;;;;;;;;;4437555;32;20256;-55
2021/09/22 00:29:26;;;;;;;10.32;7.72;;;;;;;;;;4448035;32;20223;-54
2021/09/22 00:31:52;;;;;;;11.38;7.30;;;;;;;;;;4448220;32;20240;-54
2021/09/22 00:34:17;;;;;;;7.28;6.20;;;;;;;;;;4446326;32;20284;-54
2021/09/22 00:36:44;;;;;;;8.75;6.70;;;;;;;;;;4442778;32;20654;-54
2021/09/22 00:39:10;;;;;;;7.80;6.28;;;;;;;;;;4446543;32;20243;-56
2021/09/22 00:41:35;;;;;;;10.07;7.18;;;;;;;;;;4443475;32;20248;-55
2021/09/22 00:44:00;;;;;;;8.30;7.00;;;;;;;;;;4440306;32;20611;-55
2021/09/22 00:46:26;;;;;;;11.25;7.07;;;;;;;;;;4441600;32;20311;-55
2021/09/22 00:48:52;;;;;;;7.70;6.80;;;;;;;;;;4441886;32;20201;-55
2021/09/22 00:51:17;;;;;;;9.73;6.97;;;;;;;;;;4445179;32;20584;-57
2021/09/22 00:53:43;;;;;;;11.07;8.20;;;;;;;;;;4440139;32;20310;-57
2021/09/22 00:56:08;;;;;;;9.82;7.40;;;;;;;;;;4439599;32;20269;-56
2021/09/22 00:58:34;;;;;;;9.02;7.10;;;;;;;;;;4440527;32;20268;-56
2021/09/22 01:01:01;;;;;;;11.10;7.18;;;;;;;;;;4445448;32;20227;-56
2021/09/22 01:03:26;;;;;;;9.05;7.07;;;;;;;;;;4443866;32;20343;-56
2021/09/22 01:05:53;;;;;;;9.25;7.97;;;;;;;;;;4440328;32;20224;-56
2021/09/22 01:08:19;;;;;;;14.68;7.95;;;;;;;;;;4441394;32;20217;-56
2021/09/22 01:10:46;;;;;;;11.27;7.55;;;;;;;;;;4438223;32;20323;-56
2021/09/22 01:13:12;;;;;;;9.38;7.15;;;;;;;;;;4444708;32;20361;-56
2021/09/22 01:15:39;;;;;;;10.15;7.90;;;;;;;;;;4440652;32;20221;-56
2021/09/22 01:18:11;;;;;;;16.37;9.45;;;;;;;;;;4445625;32;20358;-56
2021/09/22 01:20:37;;;;;;;10.10;7.93;;;;;;;;;;4440979;32;20333;-54
2021/09/22 01:23:05;;;;;;;12.23;8.32;;;;;;;;;;4444191;32;20544;-54
2021/09/22 01:25:30;;;;;;;13.02;9.32;;;;;;;;;;4437825;32;20267;-54
2021/09/22 01:28:00;;;;;;;14.05;8.98;;;;;;;;;;4440881;32;20366;-56
2021/09/22 01:30:27;;;;;;;15.27;8.73;;;;;;;;;;4439555;32;20294;-55
2021/09/22 01:32:56;;;;;;;11.50;8.68;;;;;;;;;;4446277;32;20291;-55
2021/09/22 01:35:22;;;;;;;13.25;8.25;;;;;;;;;;4435057;32;20291;-54
2021/09/22 01:37:48;;;;;;;10.93;8.90;;;;;;;;;;4439014;32;20263;-55
2021/09/22 01:40:14;;;;;;;11.63;8.75;;;;;;;;;;4435503;32;20370;-54
2021/09/22 01:42:40;;;;;;;11.45;7.82;;;;;;;;;;4436803;32;20307;-54
2021/09/22 01:45:08;;;;;;;15.07;8.60;;;;;;;;;;4439382;32;20326;-55
2021/09/22 01:47:34;;;;;;;14.32;9.35;;;;;;;;;;4442740;32;20619;-54
2021/09/22 01:50:12;;;;;;;10.57;8.52;;;;;;;;;;4439287;32;20660;-55
2021/09/22 01:52:38;;;;;;;14.18;9.00;;;;;;;;;;4436942;32;20533;-54
2021/09/22 01:55:05;;;;;;;11.82;8.75;;;;;;;;;;4443463;32;20318;-54
2021/09/22 01:57:31;;;;;;;12.93;9.25;;;;;;;;;;4435875;32;20299;-54
2021/09/22 01:59:56;;;;;;;13.98;8.85;;;;;;;;;;4438571;32;20345;-54
2021/09/22 02:02:22;;;;;;;12.23;7.75;;;;;;;;;;4444669;32;20298;-53
2021/09/22 02:04:47;;;;;;;11.52;8.52;;;;;;;;;;4444593;32;20589;-54
2021/09/22 02:07:13;;;;;;;16.90;9.88;;;;;;;;;;4445621;32;20217;-54
2021/09/22 02:09:38;;;;;;;10.77;9.20;;;;;;;;;;4443252;32;20351;-54
2021/09/22 02:12:04;;;;;;;12.57;10.20;;;;;;;;;;4437540;32;20589;-55
2021/09/22 02:14:30;;;;;;;10.48;7.87;;;;;;;;;;4443400;32;20760;-55
2021/09/22 02:16:55;;;;;;;12.50;9.20;;;;;;;;;;4434458;32;20283;-54
2021/09/22 02:19:21;;;;;;;15.50;11.18;;;;;;;;;;4434041;32;20303;-56
2021/09/22 02:21:47;;;;;;;13.27;8.93;;;;;;;;;;4433473;32;20268;-55
2021/09/22 02:24:13;;;;;;;11.18;8.85;;;;;;;;;;4443398;32;20405;-56
2021/09/22 02:26:38;;;;;;;13.10;8.63;;;;;;;;;;4443953;32;20220;-55
2021/09/22 02:29:03;;;;;;;13.95;9.75;;;;;;;;;;4442833;32;20628;-55
2021/09/22 02:31:29;;;;;;;13.88;9.10;;;;;;;;;;4437150;32;20728;-55
2021/09/22 02:33:54;;;;;;;12.52;9.45;;;;;;;;;;4431400;32;20772;-55
2021/09/22 02:36:20;;;;;;;12.70;8.77;;;;;;;;;;4431751;32;20341;-55
2021/09/22 02:38:45;;;;;;;14.32;9.15;;;;;;;;;;4433652;32;20387;-57
2021/09/22 02:41:11;;;;;;;15.32;8.90;;;;;;;;;;4442473;32;20296;-55
2021/09/22 02:43:36;;;;;;;11.98;9.00;;;;;;;;;;4438187;32;20905;-54
2021/09/22 02:46:02;;;;;;;14.82;10.48;;;;;;;;;;4437157;32;20227;-54
2021/09/22 02:48:28;;;;;;;14.10;10.38;;;;;;;;;;4445958;32;20284;-54
2021/09/22 02:50:53;;;;;;;17.75;10.80;;;;;;;;;;4438879;32;20345;-54
2021/09/22 02:53:19;;;;;;;13.82;9.82;;;;;;;;;;4441400;32;20343;-54
2021/09/22 02:55:45;;;;;;;15.23;9.65;;;;;;;;;;4439080;32;20257;-54
2021/09/22 02:58:11;;;;;;;13.35;9.55;;;;;;;;;;4439111;32;20204;-54
2021/09/22 03:00:36;;;;;;;15.88;10.07;;;;;;;;;;4442250;32;20768;-53
2021/09/22 03:03:02;;;;;;;17.12;10.88;;;;;;;;;;4438711;32;20291;-55
2021/09/22 03:05:27;;;;;;;13.10;9.60;;;;;;;;;;4429429;32;20249;-55
2021/09/22 03:07:53;;;;;;;14.25;9.15;;;;;;;;;;4436879;32;20233;-54
2021/09/22 03:10:21;;;;;;;13.55;9.65;;;;;;;;;;4441577;32;20415;-54
2021/09/22 03:12:48;;;;;;;15.05;9.73;;;;;;;;;;4440507;32;20382;-54
2021/09/22 03:15:13;;;;;;;14.73;9.48;;;;;;;;;;4437532;32;20632;-54
2021/09/22 03:17:39;;;;;;;12.85;9.32;;;;;;;;;;4448363;32;20277;-55
2021/09/22 03:20:06;;;;;;;11.63;9.00;;;;;;;;;;4443312;32;20235;-54
2021/09/22 03:22:32;;;;;;;12.50;9.23;;;;;;;;;;4436000;32;20632;-55
2021/09/22 03:24:57;;;;;;;13.02;9.00;;;;;;;;;;4447354;32;20299;-55
2021/09/22 03:27:23;;;;;;;14.02;9.05;;;;;;;;;;4448072;32;20479;-54
2021/09/22 03:29:49;;;;;;;12.60;9.50;;;;;;;;;;4445939;32;20292;-55
2021/09/22 03:32:15;;;;;;;11.35;8.48;;;;;;;;;;4439745;32;20268;-56
2021/09/22 03:34:40;;;;;;;13.40;9.80;;;;;;;;;;4435780;32;20314;-56
2021/09/22 03:37:06;;;;;;;22.95;9.25;;;;;;;;;;4446354;32;20345;-56
2021/09/22 03:39:31;;;;;;;16.08;8.98;;;;;;;;;;4436340;32;20341;-56
2021/09/22 03:41:57;;;;;;;13.70;8.32;;;;;;;;;;4444852;32;20260;-56
2021/09/22 03:44:22;;;;;;;13.70;9.48;;;;;;;;;;4439185;32;20268;-56
2021/09/22 03:46:48;;;;;;;13.77;8.65;;;;;;;;;;4441912;32;20775;-56
2021/09/22 03:49:13;;;;;;;14.80;8.15;;;;;;;;;;4441144;32;20280;-56
2021/09/22 03:51:39;;;;;;;12.93;8.90;;;;;;;;;;4444960;32;20315;-56
2021/09/22 03:54:04;;;;;;;10.45;8.43;;;;;;;;;;4446277;32;20303;-56
2021/09/22 03:56:30;;;;;;;16.95;8.82;;;;;;;;;;4443502;32;20264;-56
2021/09/22 03:58:55;;;;;;;10.23;8.13;;;;;;;;;;4440365;32;20771;-56
2021/09/22 04:01:21;;;;;;;9.60;7.90;;;;;;;;;;4447087;32;20248;-56
2021/09/22 04:03:47;;;;;;;16.27;9.60;;;;;;;;;;4441723;32;20295;-56
2021/09/22 04:06:12;;;;;;;15.10;8.50;;;;;;;;;;4440127;32;20263;-56
2021/09/22 04:08:38;;;;;;;15.45;8.82;;;;;;;;;;4439792;32;20287;-55
2021/09/22 04:11:03;;;;;;;10.13;7.18;;;;;;;;;;4442415;32;20245;-57
2021/09/22 04:13:29;;;;;;;9.98;8.25;;;;;;;;;;4443397;32;20670;-54
2021/09/22 04:15:54;;;;;;;11.90;8.60;;;;;;;;;;4438872;32;20334;-54
2021/09/22 04:18:20;;;;;;;10.88;8.88;;;;;;;;;;4435248;32;20309;-54
2021/09/22 04:20:45;;;;;;;11.57;8.68;;;;;;;;;;4442103;32;20295;-54
2021/09/22 04:23:11;;;;;;;11.40;8.23;;;;;;;;;;4441521;32;20655;-54
2021/09/22 04:25:36;;;;;;;11.40;8.48;;;;;;;;;;4444463;32;20739;-54
2021/09/22 04:28:01;;;;;;;10.13;8.23;;;;;;;;;;4441716;32;20295;-55
2021/09/22 04:30:27;;;;;;;14.80;9.13;;;;;;;;;;4441258;32;20229;-55
2021/09/22 04:32:52;;;;;;;11.95;9.15;;;;;;;;;;4432204;32;20635;-53
2021/09/22 04:35:18;;;;;;;11.50;8.27;;;;;;;;;;4434739;32;20814;-54
2021/09/22 04:37:44;;;;;;;14.45;8.05;;;;;;;;;;4442964;32;20743;-55
2021/09/22 04:40:11;;;;;;;9.88;7.82;;;;;;;;;;4441213;32;20221;-54
2021/09/22 04:42:38;;;;;;;11.45;8.43;;;;;;;;;;4437326;32;20293;-54
2021/09/22 04:45:05;;;;;;;11.85;9.02;;;;;;;;;;4439296;32;20340;-55
2021/09/22 04:47:30;;;;;;;11.82;8.57;;;;;;;;;;4437406;32;20254;-55
2021/09/22 04:49:57;;;;;;;12.45;8.88;;;;;;;;;;4439533;32;20280;-55
2021/09/22 04:52:23;;;;;;;10.07;7.70;;;;;;;;;;4441430;32;20727;-55
2021/09/22 04:54:48;;;;;;;10.65;7.90;;;;;;;;;;4442736;32;20336;-56
2021/09/22 04:57:14;;;;;;;8.02;6.87;;;;;;;;;;4447107;32;20673;-55
2021/09/22 04:59:39;;;;;;;12.27;8.40;;;;;;;;;;4445396;32;20390;-55
2021/09/22 05:02:05;;;;;;;12.75;7.80;;;;;;;;;;4439043;32;20601;-55
2021/09/22 05:04:30;;;;;;;9.02;7.05;;;;;;;;;;4439686;32;20348;-55
2021/09/22 05:06:56;;;;;;;8.85;6.93;;;;;;;;;;4443737;32;20364;-56
2021/09/22 05:09:21;;;;;;;8.73;6.35;;;;;;;;;;4444503;32;20642;-56
2021/09/22 05:11:47;;;;;;;12.98;6.20;;;;;;;;;;4437675;32;20220;-56
2021/09/22 05:14:12;;;;;;;7.65;6.85;;;;;;;;;;4440087;32;20348;-56
2021/09/22 05:16:37;;;;;;;11.98;6.93;;;;;;;;;;4446284;32;20322;-55
2021/09/22 05:19:03;;;;;;;10.00;7.25;;;;;;;;;;4436104;32;20710;-55
2021/09/22 05:21:28;;;;;;;6.95;5.57;;;;;;;;;;4444844;32;20275;-55
2021/09/22 05:23:54;;;;;;;8.35;6.50;;;;;;;;;;4440362;32;20272;-56
2021/09/22 05:26:20;;;;;;;9.25;5.70;;;;;;;;;;4440537;32;20229;-55
2021/09/22 05:28:45;;;;;;;7.25;5.53;;;;;;;;;;4440545;32;20573;-55
2021/09/22 05:31:11;;;;;;;21.02;13.98;;;;;;;;;;4436066;32;20220;-55
2021/09/22 05:33:36;;;;;;;9.00;7.00;;;;;;;;;;4443517;32;20734;-55
2021/09/22 05:36:02;;;;;;;8.50;5.87;;;;;;;;;;4442977;32;20236;-55
2021/09/22 05:38:28;;;;;;;10.05;6.45;;;;;;;;;;4440379;32;20374;-56
2021/09/22 05:40:53;;;;;;;8.80;6.45;;;;;;;;;;4435638;32;20297;-55
2021/09/22 05:43:19;;;;;;;7.90;6.40;;;;;;;;;;4442186;32;20636;-55
2021/09/22 05:45:45;;;;;;;7.18;6.22;;;;;;;;;;4446036;32;20256;-55
2021/09/22 05:48:10;;;;;;;7.18;6.37;;;;;;;;;;4446649;32;20329;-57
2021/09/22 05:50:36;;;;;;;8.82;6.47;;;;;;;;;;4437728;32;20384;-55
2021/09/22 05:53:01;;;;;;;6.35;5.68;;;;;;;;;;4443785;32;20208;-55
2021/09/22 05:55:27;;;;;;;7.22;5.43;;;;;;;;;;4440478;32;20243;-55
2021/09/22 05:57:52;;;;;;;8.68;6.00;;;;;;;;;;4435106;32;20291;-55
2021/09/22 06:00:18;;;;;;;9.13;6.28;;;;;;;;;;4438938;32;20212;-55
2021/09/22 06:02:43;;;;;;;7.70;6.28;;;;;;;;;;4445582;32;20655;-55
2021/09/22 06:05:09;;;;;;;6.25;5.65;;;;;;;;;;4432453;32;20287;-55
2021/09/22 06:07:34;;;;;;;7.95;5.53;;;;;;;;;;4445109;32;20306;-55
2021/09/22 06:10:00;;;;;;;6.40;4.85;;;;;;;;;;4446489;32;20711;-56
2021/09/22 06:12:25;;;;;;;12.30;5.87;;;;;;;;;;4442508;32;20300;-56
2021/09/22 06:14:51;;;;;;;10.38;6.47;;;;;;;;;;4434530;32;20708;-55
2021/09/22 06:17:16;;;;;;;8.32;6.07;;;;;;;;;;4442961;32;20354;-55
2021/09/22 06:19:42;;;;;;;10.98;5.95;;;;;;;;;;4434958;32;20296;-56
2021/09/22 06:22:07;;;;;;;8.93;6.62;;;;;;;;;;4442367;32;20272;-55
2021/09/22 06:24:33;;;;;;;9.57;5.90;;;;;;;;;;4444641;32;20216;-55
2021/09/22 06:26:58;;;;;;;6.37;5.05;;;;;;;;;;4435861;32;20236;-55
2021/09/22 06:29:23;;;;;;;6.45;5.80;;;;;;;;;;4443937;32;20239;-55
2021/09/22 06:31:49;;;;;;;8.70;6.22;;;;;;;;;;4437902;32;20290;-55
2021/09/22 06:34:15;;;;;;;7.05;4.95;;;;;;;;;;4446173;32;20311;-56
2021/09/22 06:36:40;;;;;;;6.97;5.55;;;;;;;;;;4435993;32;20241;-55
2021/09/22 06:39:06;;;;;;;9.52;5.85;;;;;;;;;;4441612;32;20303;-55
2021/09/22 06:41:33;;;;;;;6.57;5.87;;;;;;;;;;4438048;32;20264;-55
2021/09/22 06:44:00;;;;;;;8.15;5.82;;;;;;;;;;4440962;32;20228;-55
2021/09/22 06:46:25;;;;;;;8.25;6.07;;;;;;;;;;4440584;32;20236;-55
2021/09/22 06:48:51;;;;;;;9.23;5.90;;;;;;;;;;4443033;32;20314;-56
2021/09/22 06:51:20;;;;;;;8.73;5.32;;;;;;;;;;4435498;32;20393;-54
2021/09/22 06:53:46;;;;;;;7.62;5.35;;;;;;;;;;4432588;32;20262;-55
2021/09/22 06:56:11;;;;;;;6.03;5.10;;;;;;;;;;4439367;32;20257;-55
2021/09/22 06:58:37;;;;;;;8.10;6.15;;;;;;;;;;4439640;32;20317;-55
2021/09/22 07:01:02;;;;;;;7.03;6.18;;;;;;;;;;4440944;32;20332;-54
2021/09/22 07:03:28;;;;;;;7.25;6.15;;;;;;;;;;4442129;32;20532;-55
2021/09/22 07:05:53;;;;;;;7.80;6.50;;;;;;;;;;4439158;32;20704;-55
2021/09/22 07:08:19;;;;;;;7.22;5.15;;;;;;;;;;4439181;32;20407;-55
2021/09/22 07:10:45;;;;;;;8.30;6.10;;;;;;;;;;4437764;32;20286;-56
2021/09/22 07:13:11;;;;;;;7.15;5.90;;;;;;;;;;4442049;32;20252;-55
2021/09/22 07:15:37;;;;;;;10.77;5.53;;;;;;;;;;4442701;32;20307;-56
2021/09/22 07:18:03;;;;;;;6.55;5.70;;;;;;;;;;4442342;32;20792;-56
2021/09/22 07:20:29;;;;;;;8.60;6.28;;;;;;;;;;4442903;32;20266;-55
2021/09/22 07:22:54;;;;;;;9.25;5.40;;;;;;;;;;4436514;32;20350;-56
2021/09/22 07:25:20;;;;;;;10.07;6.37;;;;;;;;;;4439993;32;20308;-56
2021/09/22 07:27:46;;;;;;;7.18;5.53;;;;;;;;;;4441985;32;20351;-56
2021/09/22 07:30:16;;;;;;;8.23;5.82;;;;;;;;;;4444230;32;20262;-55
2021/09/22 07:32:42;;;;;;;8.35;5.87;;;;;;;;;;4437432;32;20216;-55
2021/09/22 07:35:08;;;;;;;6.70;5.32;;;;;;;;;;4441394;32;20242;-55
2021/09/22 07:37:34;;;;;;;9.18;6.10;;;;;;;;;;4441677;32;20661;-55
2021/09/22 07:39:59;;;;;;;9.95;6.32;;;;;;;;;;4438705;32;20248;-54
2021/09/22 07:42:25;;;;;;;9.82;6.12;;;;;;;;;;4441948;32;20201;-54
2021/09/22 07:44:54;;;;;;;8.57;5.87;;;;;;;;;;4434531;32;20397;-54
2021/09/22 07:47:20;;;;;;;8.40;6.20;;;;;;;;;;4445281;32;20378;-54
2021/09/22 07:49:46;;;;;;;9.48;6.47;;;;;;;;;;4437379;32;20196;-54
2021/09/22 07:52:12;;;;;;;7.20;5.47;;;;;;;;;;4431277;32;20498;-55
2021/09/22 07:54:38;;;;;;;7.60;6.05;;;;;;;;;;4438453;32;20272;-54
2021/09/22 07:57:04;;;;;;;6.43;5.37;;;;;;;;;;4437414;32;20386;-53
2021/09/22 07:59:30;;;;;;;7.95;5.85;;;;;;;;;;4444588;32;21190;-53
2021/09/22 08:01:57;;;;;;;6.85;6.12;;;;;;;;;;4439165;32;20224;-53
2021/09/22 08:04:23;;;;;;;6.25;5.65;;;;;;;;;;4443650;32;20236;-54
2021/09/22 08:06:48;;;;;;;7.47;5.60;;;;;;;;;;4435807;32;20246;-54
2021/09/22 08:09:13;;;;;;;6.95;5.57;;;;;;;;;;4445461;32;20382;-54
2021/09/22 08:11:39;;;;;;;8.70;6.28;;;;;;;;;;4438071;32;20578;-54
2021/09/22 08:14:05;;;;;;;6.65;5.50;;;;;;;;;;4446547;32;20299;-54
2021/09/22 08:16:30;;;;;;;6.97;6.28;;;;;;;;;;4438971;32;20335;-53
2021/09/22 08:18:55;;;;;;;6.43;5.15;;;;;;;;;;4441812;32;20311;-53
2021/09/22 08:21:21;;;;;;;9.65;5.75;;;;;;;;;;4447270;32;20372;-53
2021/09/22 08:23:46;;;;;;;8.25;5.95;;;;;;;;;;4438333;32;20342;-53
2021/09/22 08:26:12;;;;;;;6.62;5.55;;;;;;;;;;4438983;32;20754;-53
2021/09/22 08:28:37;;;;;;;13.33;6.37;;;;;;;;;;4444241;32;20259;-53
2021/09/22 08:31:03;;;;;;;14.27;6.65;;;;;;;;;;4437368;32;20409;-52
2021/09/22 08:33:28;;;;;;;13.25;6.68;;;;;;;;;;4445488;32;20299;-54
2021/09/22 08:35:54;;;;;;;8.43;5.87;;;;;;;;;;4441762;32;20418;-53
2021/09/22 08:38:19;;;;;;;9.65;6.03;;;;;;;;;;4439625;32;20363;-53
2021/09/22 08:40:45;;;;;;;13.02;5.70;;;;;;;;;;4445809;32;20284;-55
2021/09/22 08:43:14;;;;;;;7.53;6.03;;;;;;;;;;4445666;32;20654;-55
2021/09/22 08:45:41;;;;;;;7.12;6.03;;;;;;;;;;4439888;32;20682;-55
2021/09/22 08:48:09;;;;;;;8.32;5.28;;;;;;;;;;4441589;32;20307;-55
2021/09/22 08:50:35;;;;;;;7.25;5.55;;;;;;;;;;4440462;32;20499;-55
2021/09/22 08:53:00;;;;;;;8.48;6.97;;;;;;;;;;4437336;32;20813;-55
2021/09/22 08:55:26;;;;;;;7.53;6.28;;;;;;;;;;4444960;32;20275;-55
2021/09/22 08:57:51;;;;;;;8.43;6.00;;;;;;;;;;4437321;32;20704;-55
2021/09/22 09:00:17;;;;;;;8.38;6.00;;;;;;;;;;4443729;32;20665;-55
2021/09/22 09:02:45;;;;;;;7.70;5.12;;;;;;;;;;4442899;32;20399;-55
2021/09/22 09:05:16;;;;;;;6.78;5.43;;;;;;;;;;4439140;32;20336;-55
2021/09/22 09:07:59;;;;;;;6.43;5.40;;;;;;;;;;4437976;32;20208;-55
2021/09/22 09:10:28;;;;;;;6.72;5.45;;;;;;;;;;4440947;32;20224;-54
2021/09/22 09:13:12;;;;;;;8.88;6.10;;;;;;;;;;4443042;32;20240;-55
2021/09/22 09:15:47;;;;;;;8.48;6.37;;;;;;;;;;4447839;32;20244;-55
2021/09/22 09:18:19;;;;;;;8.77;6.65;;;;;;;;;;4444387;32;20581;-55
2021/09/22 09:20:48;;;;;;;5.10;4.37;;;;;;;;;;4443095;32;20272;-55
2021/09/22 09:23:16;;;;;;;7.28;6.00;;;;;;;;;;4440085;32;20259;-55
2021/09/22 09:26:03;;;;;;;7.93;6.45;;;;;;;;;;4443781;32;20230;-54
2021/09/22 09:28:32;;;;;;;7.90;5.62;;;;;;;;;;4434968;32;20266;-54
2021/09/22 09:30:59;;;;;;;5.85;5.25;;;;;;;;;;4434278;32;20342;-54
2021/09/22 09:33:33;;;;;;;9.05;6.25;;;;;;;;;;4434739;32;20649;-54
2021/09/22 09:36:32;;;;;;;7.80;5.65;;;;;;;;;;4442184;32;20248;-55
2021/09/22 09:39:03;;;;;;;9.65;7.53;;;;;;;;;;4435730;32;20782;-54
2021/09/22 09:41:35;;;;;;;7.85;6.40;;;;;;;;;;4441066;32;20296;-53
2021/09/22 09:44:05;;;;;;;12.55;6.10;;;;;;;;;;4442382;32;20241;-54
2021/09/22 09:46:31;;;;;;;9.20;6.15;;;;;;;;;;4443575;32;20575;-54
2021/09/22 09:49:04;;;;;;;8.30;6.00;;;;;;;;;;4442686;32;20323;-53
2021/09/22 09:51:31;;;;;;;9.80;6.47;;;;;;;;;;4443552;32;20276;-53
2021/09/22 09:54:15;;;;;;;11.95;7.47;;;;;;;;;;4443884;32;20352;-54
2021/09/22 09:56:42;;;;;;;11.50;7.68;;;;;;;;;;4447246;32;20737;-53
2021/09/22 09:59:08;;;;;;;7.68;6.47;;;;;;;;;;4439556;32;20486;-53
2021/09/22 10:01:39;;;;;;;9.45;6.25;;;;;;;;;;4439655;32;20357;-53
2021/09/22 10:04:06;;;;;;;7.95;6.47;;;;;;;;;;4436047;32;20308;-54
2021/09/22 10:06:32;;;;;;;12.60;6.75;;;;;;;;;;4439260;32;20297;-54
2021/09/22 10:08:58;;;;;;;7.78;6.95;;;;;;;;;;4439495;32;20354;-55
2021/09/22 10:11:24;;;;;;;8.27;6.93;;;;;;;;;;4432438;32;20299;-55
2021/09/22 10:13:51;;;;;;;10.15;8.20;;;;;;;;;;4437555;32;20326;-54
2021/09/22 10:16:18;;;;;;;10.35;6.93;;;;;;;;;;4438692;32;20661;-53
2021/09/22 10:18:47;;;;;;;8.23;6.55;;;;;;;;;;4438752;32;20361;-54
2021/09/22 10:21:13;;;;;;;10.35;7.75;;;;;;;;;;4437923;32;20297;-53
2021/09/22 10:23:39;;;;;;;10.13;7.53;;;;;;;;;;4442879;32;20686;-53
2021/09/22 10:26:06;;;;;;;11.88;6.57;;;;;;;;;;4435295;32;20821;-54
2021/09/22 10:28:38;;;;;;;9.43;7.18;;;;;;;;;;4440060;32;20216;-54
2021/09/22 10:31:04;;;;;;;9.70;6.97;;;;;;;;;;4440413;32;20291;-54
2021/09/22 10:33:36;;;;;;;10.10;6.90;;;;;;;;;;4439294;32;20285;-53
2021/09/22 10:36:04;;;;;;;7.97;6.30;;;;;;;;;;4434599;32;20346;-53
2021/09/22 10:38:30;;;;;;;9.98;7.07;;;;;;;;;;4437810;32;20220;-53
2021/09/22 10:40:56;;;;;;;13.98;7.68;;;;;;;;;;4435553;32;20857;-53
2021/09/22 10:43:24;;;;;;;8.50;6.03;;;;;;;;;;4434794;32;20236;-56
2021/09/22 10:46:05;;;;;;;10.05;6.57;;;;;;;;;;4436795;32;20251;-54
2021/09/22 10:48:31;;;;;;;9.23;7.03;;;;;;;;;;4436999;32;20212;-54
2021/09/22 10:51:02;;;;;;;7.82;5.95;;;;;;;;;;4438483;32;20400;-54
2021/09/22 10:53:30;;;;;;;10.95;6.72;;;;;;;;;;4440168;32;20259;-54
2021/09/22 10:56:15;;;;;;;8.65;6.47;;;;;;;;;;4440518;32;20216;-54
2021/09/22 10:58:49;;;;;;;8.85;6.25;;;;;;;;;;4442852;32;20612;-53
2021/09/22 11:01:32;;;;;;;7.62;5.60;;;;;;;;;;4438146;32;20254;-53
2021/09/22 11:04:05;;;;;;;8.10;5.03;;;;;;;;;;4442298;32;20240;-53
2021/09/22 11:06:42;;;;;;;5.85;5.25;;;;;;;;;;4438594;32;20279;-54
2021/09/22 11:09:29;;;;;;;8.20;5.90;;;;;;;;;;4443860;32;20365;-54
2021/09/22 11:11:58;;;;;;;6.87;5.03;;;;;;;;;;4435489;32;20303;-53
2021/09/22 11:14:27;;;;;;;11.07;5.37;;;;;;;;;;4434254;32;20308;-53
2021/09/22 11:16:53;;;;;;;7.78;5.30;;;;;;;;;;4438272;32;20263;-52
2021/09/22 11:19:20;;;;;;;9.88;6.28;;;;;;;;;;4440658;32;20250;-53
2021/09/22 11:21:47;;;;;;;7.93;5.57;;;;;;;;;;4438435;32;20673;-53
2021/09/22 11:24:14;;;;;;;8.95;5.32;;;;;;;;;;4437615;32;20242;-53
2021/09/22 11:27:16;;;;;;;17.30;5.87;;;;;;;;;;4435950;32;20692;-53
2021/09/22 11:29:46;;;;;;;7.68;4.47;;;;;;;;;;4415372;32;20316;-52
2021/09/22 11:32:27;;;;;;;10.43;7.00;;;;;;;;;;4436833;32;20248;-53
2021/09/22 11:35:16;;;;;;;15.07;6.80;;;;;;;;;;4440977;32;20272;-53
2021/09/22 11:37:45;;;;;;;8.20;5.95;;;;;;;;;;4435698;32;20274;-53
2021/09/22 11:40:18;;;;;;;8.45;5.25;;;;;;;;;;4443878;32;20277;-53
2021/09/22 11:42:58;;;;;;;8.30;5.80;;;;;;;;;;4440301;32;20311;-53
2021/09/22 11:45:36;;;;;;;11.82;5.60;;;;;;;;;;4440368;32;20341;-52
2021/09/22 11:48:01;;;;;;;7.50;5.68;;;;;;;;;;4447419;32;20236;-53
2021/09/22 11:50:37;;;;;;;12.48;5.18;;;;;;;;;;4446071;32;20647;-52
2021/09/22 11:53:05;;;;;;;7.85;5.12;;;;;;;;;;4439646;32;20233;-53
2021/09/22 11:55:31;;;;;;;8.30;6.05;;;;;;;;;;4445759;32;20209;-53
2021/09/22 11:57:56;;;;;;;6.80;5.37;;;;;;;;;;4444634;32;20299;-53
2021/09/22 12:00:24;;;;;;;7.43;5.28;;;;;;;;;;4436493;32;20740;-53
2021/09/22 12:02:51;;;;;;;7.45;5.35;;;;;;;;;;4442322;32;20240;-54
2021/09/22 12:05:19;;;;;;;9.45;5.87;;;;;;;;;;4445858;32;20259;-53
2021/09/22 12:07:46;;;;;;;6.37;5.20;;;;;;;;;;4440907;32;20608;-54
2021/09/22 12:10:12;;;;;;;7.12;5.32;;;;;;;;;;4439890;32;20242;-53
2021/09/22 12:12:40;;;;;;;6.95;5.37;;;;;;;;;;4440803;32;20777;-53
2021/09/22 12:15:10;;;;;;;9.52;5.90;;;;;;;;;;4444928;32;20311;-53
2021/09/22 12:17:38;;;;;;;8.60;5.95;;;;;;;;;;4438090;32;20251;-53
2021/09/22 12:20:08;;;;;;;21.17;6.82;;;;;;;;;;4446697;32;20262;-53
2021/09/22 12:22:36;;;;;;;12.43;8.02;;;;;;;;;;4436590;32;20213;-53
2021/09/22 12:25:04;;;;;;;8.73;6.32;;;;;;;;;;4449804;32;20283;-55
2021/09/22 12:27:31;;;;;;;6.62;5.53;;;;;;;;;;4442997;32;20245;-54
2021/09/22 12:29:56;;;;;;;8.45;6.90;;;;;;;;;;4447887;32;20300;-54
2021/09/22 12:32:24;;;;;;;7.60;6.18;;;;;;;;;;4440673;32;20642;-53
2021/09/22 12:34:50;;;;;;;8.35;6.40;;;;;;;;;;4441065;32;20240;-53
2021/09/22 12:37:18;;;;;;;8.50;6.37;;;;;;;;;;4442617;32;20329;-53
2021/09/22 12:40:04;;;;;;;10.20;7.12;;;;;;;;;;4450621;32;20310;-53
2021/09/22 12:42:48;;;;;;;8.50;6.05;;;;;;;;;;4446827;32;20212;-54
2021/09/22 12:45:22;;;;;;;7.45;6.10;;;;;;;;;;4439068;32;20209;-53
2021/09/22 12:47:56;;;;;;;7.60;5.55;;;;;;;;;;4437155;32;20379;-53
2021/09/22 12:50:42;;;;;;;7.50;6.40;;;;;;;;;;4441325;32;20236;-53
2021/09/22 12:53:17;;;;;;;11.05;7.47;;;;;;;;;;4442160;32;20242;-54
2021/09/22 12:55:47;;;;;;;9.25;6.32;;;;;;;;;;4440246;32;20439;-54
2021/09/22 12:58:16;;;;;;;7.25;6.05;;;;;;;;;;4441620;32;20606;-53
2021/09/22 13:00:54;;;;;;;8.98;6.80;;;;;;;;;;4446191;32;20336;-53
2021/09/22 13:03:30;;;;;;;7.75;5.32;;;;;;;;;;4440725;32;20371;-53
2021/09/22 13:06:27;;;;;;;8.50;5.90;;;;;;;;;;4439533;32;20224;-53
2021/09/22 13:09:03;;;;;;;8.10;6.28;;;;;;;;;;4442978;32;20629;-55
2021/09/22 13:11:39;;;;;;;6.47;5.18;;;;;;;;;;4441386;32;20247;-54
2021/09/22 13:14:10;;;;;;;6.40;5.57;;;;;;;;;;4446555;32;20303;-53
2021/09/22 13:16:48;;;;;;;6.87;5.57;;;;;;;;;;4439839;32;20292;-53
2021/09/22 13:19:14;;;;;;;7.93;6.30;;;;;;;;;;4443965;32;20325;-53
2021/09/22 13:21:42;;;;;;;8.10;6.43;;;;;;;;;;4441987;32;20344;-53
2021/09/22 13:24:11;;;;;;;10.35;7.72;;;;;;;;;;4441648;32;20220;-53
2021/09/22 13:26:38;;;;;;;7.97;5.85;;;;;;;;;;4440765;32;20224;-53
2021/09/22 13:29:05;;;;;;;7.50;6.22;;;;;;;;;;4439218;32;20307;-54
2021/09/22 13:31:34;;;;;;;8.27;5.78;;;;;;;;;;4434454;32;20262;-53
2021/09/22 13:34:00;;;;;;;7.50;5.95;;;;;;;;;;4441225;32;20229;-53
2021/09/22 13:36:26;;;;;;;8.05;6.12;;;;;;;;;;4440730;32;20264;-53
2021/09/22 13:38:55;;;;;;;9.18;5.97;;;;;;;;;;4443204;32;20644;-53
2021/09/22 13:41:22;;;;;;;11.50;7.12;;;;;;;;;;4444971;32;20517;-53
2021/09/22 13:43:49;;;;;;;5.62;5.03;;;;;;;;;;4435108;32;20277;-54
2021/09/22 13:46:15;;;;;;;8.73;5.82;;;;;;;;;;4442686;32;20255;-53
2021/09/22 13:48:41;;;;;;;8.55;5.47;;;;;;;;;;4444188;32;20233;-53
2021/09/22 13:51:06;;;;;;;6.78;5.85;;;;;;;;;;4441326;32;20385;-53
2021/09/22 13:53:33;;;;;;;9.38;5.85;;;;;;;;;;4439433;32;20307;-55
2021/09/22 13:55:59;;;;;;;9.35;5.62;;;;;;;;;;4444938;32;20706;-53
2021/09/22 13:58:26;;;;;;;7.45;5.60;;;;;;;;;;4444576;32;20258;-53
2021/09/22 14:00:52;;;;;;;8.23;5.80;;;;;;;;;;4446368;32;20560;-52
2021/09/22 14:03:17;;;;;;;6.95;5.53;;;;;;;;;;4446411;32;20296;-53
2021/09/22 14:05:43;;;;;;;7.00;5.28;;;;;;;;;;4437994;32;20335;-55
2021/09/22 14:08:08;;;;;;;7.18;5.78;;;;;;;;;;4433650;32;20237;-53
2021/09/22 14:10:36;;;;;;;7.12;5.75;;;;;;;;;;4435184;32;20263;-53
2021/09/22 14:13:03;;;;;;;7.05;5.45;;;;;;;;;;4443069;32;20205;-54
2021/09/22 14:15:31;;;;;;;7.18;5.72;;;;;;;;;;4434821;32;20220;-53
2021/09/22 14:17:56;;;;;;;8.18;5.40;;;;;;;;;;4444698;32;20314;-54
2021/09/22 14:20:23;;;;;;;5.75;5.05;;;;;;;;;;4446767;32;20539;-54
2021/09/22 14:22:48;;;;;;;10.70;5.43;;;;;;;;;;4441714;32;20208;-54
2021/09/22 14:25:15;;;;;;;6.40;5.22;;;;;;;;;;4447524;32;20313;-53
2021/09/22 14:27:42;;;;;;;12.25;5.30;;;;;;;;;;4443410;32;20220;-52
2021/09/22 14:30:08;;;;;;;6.68;5.12;;;;;;;;;;4445639;32;20246;-52
2021/09/22 14:32:34;;;;;;;6.10;5.47;;;;;;;;;;4445701;32;20236;-52
2021/09/22 14:34:59;;;;;;;6.15;5.55;;;;;;;;;;4438205;32;20296;-53
2021/09/22 14:37:24;;;;;;;7.90;5.60;;;;;;;;;;4430839;32;20376;-53
2021/09/22 14:39:50;;;;;;;5.82;5.10;;;;;;;;;;4437344;32;20766;-53